createdAt,value
2023-03-06T06:30:45.935Z,36.22
2023-03-06T06:33:58.605Z,36.50
2023-03-06T06:37:10.956Z,33.22
2023-03-06T06:40:24.447Z,36.33
2023-03-06T06:43:37.307Z,30.60
2023-03-06T06:47:21.148Z,31.75
2023-03-06T06:50:22.714Z,26.77
2023-03-06T06:53:35.443Z,28.80
2023-03-06T06:56:48.577Z,33.03
2023-03-06T07:00:01.206Z,33.33
2023-03-06T07:03:14.162Z,30.55
2023-03-06T07:06:26.926Z,33.30
2023-03-06T07:09:40.224Z,31.42
2023-03-06T07:12:52.819Z,30.45
2023-03-06T07:16:05.682Z,32.30
2023-03-06T07:19:18.321Z,28.95
2023-03-06T07:22:41.425Z,31.65
2023-03-06T07:26:01.468Z,30.27
2023-03-06T07:32:26.847Z,38.33
2023-03-06T07:35:39.327Z,33.40
2023-03-06T07:38:52.053Z,37.50
2023-03-06T07:42:05.165Z,35.10
2023-03-06T07:45:17.938Z,38.22
2023-03-06T07:48:30.466Z,31.80
2023-03-06T07:51:43.174Z,34.03
2023-03-06T07:54:55.923Z,36.83
2023-03-06T07:58:08.570Z,28.95
2023-03-06T08:01:23.556Z,31.37
2023-03-06T08:04:36.184Z,41.05
2023-03-06T08:07:48.567Z,33.83
2023-03-06T08:11:01.204Z,30.08
2023-03-06T08:14:13.539Z,37.60
2023-03-06T08:17:26.633Z,32.38
2023-03-06T08:20:39.002Z,33.83
2023-03-06T08:23:51.744Z,26.85
2023-03-06T08:27:04.073Z,30.33
2023-03-06T08:30:17.039Z,28.00
2023-03-06T08:33:29.436Z,24.77
2023-03-06T08:36:42.618Z,29.75
2023-03-06T08:39:55.001Z,23.85
2023-03-06T08:43:12.979Z,22.23
2023-03-06T08:46:27.651Z,28.52
2023-03-06T08:49:40.313Z,27.08
2023-03-06T08:52:52.630Z,24.12
2023-03-06T08:56:05.672Z,21.40
2023-03-06T08:59:19.443Z,22.80
2023-03-06T09:02:32.604Z,20.48
2023-03-06T09:05:45.031Z,16.58
2023-03-06T09:08:57.668Z,22.62
2023-03-06T09:12:10.070Z,22.15
2023-03-06T09:15:23.091Z,16.70
2023-03-06T09:18:35.606Z,20.05
2023-03-06T09:21:49.239Z,19.67
2023-03-06T09:25:01.640Z,19.65
2023-03-06T09:28:14.482Z,14.40
2023-03-06T09:31:26.872Z,17.77
2023-03-06T09:34:39.563Z,17.17
2023-03-06T09:37:51.933Z,16.62
2023-03-06T09:41:16.795Z,18.70
2023-03-06T09:44:32.504Z,19.48
2023-03-06T09:48:11.155Z,19.05
2023-03-06T09:51:27.836Z,18.12
2023-03-06T09:54:40.325Z,23.35
2023-03-06T09:58:10.830Z,18.45
2023-03-06T10:01:28.129Z,18.35
2023-03-06T10:08:00.834Z,19.77
2023-03-06T10:11:13.564Z,17.08
2023-03-06T10:14:28.857Z,18.95
2023-03-06T10:17:42.015Z,18.37
2023-03-06T10:21:17.006Z,17.65
2023-03-06T10:24:45.807Z,22.93
2023-03-06T10:28:18.742Z,18.85
2023-03-06T10:31:31.376Z,23.12
2023-03-06T10:34:43.757Z,21.27
2023-03-06T10:38:17.300Z,19.10
2023-03-06T10:41:35.295Z,19.42
2023-03-06T10:44:47.940Z,20.42
2023-03-06T10:48:11.940Z,20.67
2023-03-06T10:51:24.974Z,24.98
2023-03-06T10:54:38.988Z,27.00
2023-03-06T10:57:51.736Z,26.02
2023-03-06T11:01:06.952Z,22.52
2023-03-06T11:04:24.244Z,19.17
2023-03-06T11:07:36.743Z,21.98
2023-03-06T11:11:00.854Z,22.52
2023-03-06T11:14:23.096Z,22.77
2023-03-06T11:17:37.752Z,19.17
2023-03-06T11:20:53.016Z,19.58
2023-03-06T11:24:15.434Z,17.80
2023-03-06T11:27:34.720Z,21.75
2023-03-06T11:30:49.668Z,22.02
2023-03-06T11:34:16.171Z,20.20
2023-03-06T11:37:31.851Z,16.87
2023-03-06T11:40:55.438Z,20.02
2023-03-06T11:44:34.705Z,19.23
2023-03-06T11:47:54.664Z,21.00
2023-03-06T11:51:13.754Z,21.65
2023-03-06T11:54:26.172Z,20.08
2023-03-06T11:58:18.939Z,19.02
2023-03-06T12:01:41.974Z,20.65
2023-03-06T12:05:22.914Z,21.02
2023-03-06T12:08:58.625Z,18.77
2023-03-06T12:12:11.205Z,17.08
2023-03-06T12:15:49.866Z,16.45
2023-03-06T12:19:24.934Z,18.50
2023-03-06T12:23:02.499Z,19.45
2023-03-06T12:26:36.817Z,18.02
2023-03-06T12:30:19.376Z,22.17
2023-03-06T12:33:34.924Z,17.48
2023-03-06T12:37:09.587Z,23.48
2023-03-06T12:40:56.194Z,25.95
2023-03-06T12:44:30.051Z,20.42
2023-03-06T12:47:44.595Z,16.60
2023-03-06T12:50:56.946Z,18.80
2023-03-06T12:54:09.787Z,19.10
2023-03-06T12:57:24.435Z,18.27
2023-03-06T13:00:39.977Z,19.52
2023-03-06T13:04:26.951Z,15.75
2023-03-06T13:07:52.961Z,20.83
2023-03-06T13:11:20.168Z,16.55
2023-03-06T13:14:42.386Z,18.35
2023-03-06T13:17:58.340Z,18.45
2023-03-06T13:21:42.076Z,20.83
2023-03-06T13:25:20.478Z,19.35
2023-03-06T13:28:44.938Z,21.23
2023-03-06T13:32:03.564Z,19.30
2023-03-06T13:35:34.717Z,18.65
2023-03-06T13:38:52.988Z,19.50
2023-03-06T13:42:07.255Z,20.55
2023-03-06T13:45:23.084Z,19.60
2023-03-06T13:48:45.071Z,18.35
2023-03-06T13:52:30.361Z,19.48
2023-03-06T13:56:04.247Z,23.80
2023-03-06T14:00:03.163Z,25.92
2023-03-06T14:03:21.116Z,25.33
2023-03-06T14:06:36.110Z,25.90
2023-03-06T14:10:12.046Z,21.27
2023-03-06T14:13:30.020Z,22.95
2023-03-06T14:16:50.131Z,24.02
2023-03-06T14:20:12.625Z,21.12
2023-03-06T14:23:26.551Z,19.85
2023-03-06T14:26:43.959Z,23.35
2023-03-06T14:30:06.400Z,22.33
2023-03-06T14:33:31.216Z,20.77
2023-03-06T14:36:48.635Z,26.95
2023-03-06T14:40:01.067Z,32.67
2023-03-06T14:43:26.824Z,30.73
2023-03-06T14:46:39.291Z,30.58
2023-03-06T14:50:37.055Z,29.90
2023-03-06T14:53:50.298Z,31.17
2023-03-06T14:57:05.979Z,28.55
2023-03-06T15:00:20.734Z,30.27
2023-03-06T15:03:43.365Z,25.40
2023-03-06T15:06:55.803Z,24.10
2023-03-06T15:10:29.869Z,21.48
2023-03-06T15:13:42.233Z,22.10
2023-03-06T15:16:54.870Z,25.00
2023-03-06T15:20:10.536Z,21.58
2023-03-06T15:23:33.866Z,20.70
2023-03-06T15:26:46.160Z,30.10
2023-03-06T15:30:37.110Z,34.35
2023-03-06T15:34:01.453Z,33.65
2023-03-06T15:37:34.247Z,25.90
2023-03-06T15:40:54.949Z,32.00
2023-03-06T15:44:13.484Z,30.60
2023-03-06T15:47:25.866Z,26.55
2023-03-06T15:50:38.546Z,28.75
2023-03-06T15:53:53.030Z,27.75
2023-03-06T15:57:06.390Z,26.67
2023-03-06T16:00:28.989Z,45.40
2023-03-06T16:03:41.616Z,41.92
2023-03-06T16:06:53.948Z,31.15
2023-03-06T16:10:06.767Z,39.10
2023-03-06T16:13:27.204Z,29.70
2023-03-06T16:16:39.920Z,33.95
2023-03-06T16:19:52.253Z,35.75
2023-03-06T16:23:08.028Z,37.90
2023-03-06T16:26:27.042Z,42.40
2023-03-06T16:29:40.025Z,32.08
2023-03-06T16:32:52.346Z,33.15
2023-03-06T16:36:14.434Z,31.62
2023-03-06T16:39:26.748Z,29.42
2023-03-06T16:42:39.344Z,35.30
2023-03-06T16:45:51.922Z,39.58
2023-03-06T16:49:04.542Z,38.35
2023-03-06T16:52:17.838Z,32.53
2023-03-06T16:55:30.478Z,35.55
2023-03-06T16:58:43.116Z,29.20
2023-03-06T17:01:55.730Z,32.80
2023-03-06T17:05:08.628Z,34.67
2023-03-06T17:08:21.297Z,34.03
2023-03-06T17:11:35.324Z,45.45
2023-03-06T17:14:47.929Z,41.42
2023-03-06T17:18:00.264Z,46.42
2023-03-06T17:21:15.545Z,38.97
2023-03-06T17:24:28.078Z,39.15
2023-03-06T17:27:40.726Z,35.65
2023-03-06T17:30:53.100Z,36.63
2023-03-06T17:34:05.693Z,36.20
2023-03-06T17:37:18.098Z,39.00
2023-03-06T17:40:30.712Z,40.55
2023-03-06T17:43:43.034Z,37.13
2023-03-06T17:46:55.648Z,33.10
2023-03-06T17:50:08.920Z,34.97
2023-03-06T17:53:21.696Z,39.05
2023-03-06T17:56:34.051Z,39.90
2023-03-06T17:59:47.765Z,30.77
2023-03-06T18:03:00.118Z,31.33
2023-03-06T18:06:12.886Z,35.58
2023-03-06T18:09:25.274Z,28.35
2023-03-06T18:12:37.903Z,25.00
2023-03-06T18:15:50.261Z,27.25
2023-03-06T18:19:02.900Z,30.85
2023-03-06T18:22:15.339Z,25.17
2023-03-06T18:25:27.962Z,26.75
2023-03-06T18:28:42.570Z,28.48
2023-03-06T18:31:56.853Z,24.67
2023-03-06T18:35:09.577Z,29.08
2023-03-06T18:38:22.216Z,31.27
2023-03-06T18:41:34.659Z,28.85
2023-03-06T18:44:49.856Z,29.80
2023-03-06T18:48:04.976Z,26.58
2023-03-06T18:51:19.351Z,31.35
2023-03-06T18:54:31.686Z,34.92
2023-03-06T18:57:44.339Z,34.17
2023-03-06T19:00:58.975Z,31.83
2023-03-06T19:04:12.168Z,32.30
2023-03-06T19:07:24.957Z,38.15
2023-03-06T19:10:38.281Z,33.72
2023-03-06T19:13:50.635Z,28.40
2023-03-06T19:17:03.329Z,27.17
2023-03-06T19:20:15.676Z,31.65
2023-03-06T19:23:28.257Z,33.65
2023-03-06T19:26:41.917Z,31.98
2023-03-06T19:29:54.553Z,26.25
2023-03-06T19:33:06.894Z,39.85
2023-03-06T19:36:19.852Z,34.58
2023-03-06T19:39:32.247Z,34.60
2023-03-06T19:42:44.915Z,31.05
2023-03-06T19:45:57.430Z,27.15
2023-03-06T19:49:14.060Z,33.95
2023-03-06T19:52:26.429Z,39.92
2023-03-06T19:55:39.944Z,35.92
2023-03-06T19:58:52.773Z,39.80
2023-03-06T20:02:05.418Z,43.03
2023-03-06T20:05:18.087Z,40.30
2023-03-06T20:08:30.450Z,41.05
2023-03-06T20:11:43.136Z,50.83
2023-03-06T20:14:55.498Z,40.85
2023-03-06T20:18:08.440Z,44.53
2023-03-06T20:21:21.616Z,36.03
2023-03-06T20:24:34.241Z,34.78
2023-03-06T20:27:46.606Z,32.78
2023-03-06T20:30:59.330Z,52.25
2023-03-06T20:34:11.786Z,51.08
2023-03-06T20:37:24.440Z,42.55
2023-03-06T20:40:41.031Z,34.08
2023-03-06T20:43:53.780Z,36.40
2023-03-06T20:47:06.197Z,32.70
2023-03-06T20:50:18.862Z,32.13
2023-03-06T20:53:31.285Z,41.03
2023-03-06T20:56:46.093Z,37.25
2023-03-06T20:59:58.398Z,36.60
2023-03-06T21:03:10.995Z,38.33
2023-03-06T21:06:23.511Z,37.42
2023-03-06T21:09:37.732Z,37.60
2023-03-06T21:12:50.043Z,39.67
2023-03-06T21:16:06.466Z,33.75
2023-03-06T21:19:19.329Z,36.53
2023-03-06T21:22:31.920Z,37.20
2023-03-06T21:25:51.472Z,35.50
2023-03-06T21:29:04.320Z,40.38
2023-03-06T21:32:16.734Z,35.40
2023-03-06T21:35:29.451Z,47.42
2023-03-06T21:38:41.846Z,44.88
2023-03-06T21:41:54.451Z,46.45
2023-03-06T21:45:10.275Z,46.13
2023-03-06T21:48:22.909Z,45.38
2023-03-06T21:51:35.270Z,46.08
2023-03-06T21:54:49.225Z,44.13
2023-03-06T21:58:02.981Z,45.30
2023-03-06T22:01:23.415Z,50.80
2023-03-06T22:04:36.260Z,46.60
2023-03-06T22:07:48.659Z,51.92
2023-03-06T22:11:05.801Z,45.50
2023-03-06T22:14:18.111Z,50.47
2023-03-06T22:17:30.794Z,51.75
2023-03-06T22:20:44.245Z,53.03
2023-03-06T22:23:57.569Z,53.97
2023-03-06T22:27:09.961Z,61.17
2023-03-06T22:30:22.620Z,48.97
2023-03-06T22:33:35.083Z,56.75
2023-03-06T22:36:47.730Z,54.33
2023-03-06T22:40:00.044Z,54.35
2023-03-06T22:43:12.601Z,52.50
2023-03-06T22:46:25.214Z,54.58
2023-03-06T22:49:37.959Z,59.42
2023-03-06T22:52:50.291Z,57.60
2023-03-06T22:56:03.965Z,56.20
2023-03-06T22:59:16.285Z,55.20
2023-03-06T23:02:35.368Z,58.47
2023-03-06T23:05:47.776Z,50.83
2023-03-06T23:09:05.865Z,59.63
2023-03-06T23:12:37.167Z,65.85
2023-03-06T23:16:08.550Z,53.97
2023-03-06T23:19:39.318Z,51.78
2023-03-06T23:23:10.979Z,51.30
2023-03-06T23:26:26.822Z,53.70
2023-03-06T23:29:39.476Z,48.28
2023-03-06T23:32:51.821Z,46.92
2023-03-06T23:36:05.955Z,46.45
2023-03-06T23:39:18.600Z,44.10
2023-03-06T23:42:31.695Z,44.20
2023-03-06T23:45:55.027Z,45.25
2023-03-06T23:49:08.198Z,43.53
2023-03-06T23:52:20.495Z,43.17
2023-03-06T23:55:33.139Z,47.30
2023-03-06T23:58:45.750Z,47.85
